WetterOnline ( https://www.wetteronline.de )

Wetter aktuell Geesthacht

Aktuelles Wetter: Boizenburg (46m)

6-stündlich | Neueste Meldungen
Ortszeit Temperatur Wetter
Fr, 30.09. 14:00 14.7° C leicht bewölkt
Fr, 30.09. 8:00 6.8° C Nebel
Fr, 30.09. 2:00 8.9° C wolkig
Do, 29.09. 20:00 10.2° C leichter Regen
Do, 29.09. 14:00 13.5° C bewölkt
Do, 29.09. 8:00 5.1° C bedeckt
Do, 29.09. 2:00 6.5° C wolkenlos
Mi, 28.09. 20:00 8.2° C wolkenlos
Ortszeit Temperatur Wetter
Fr, 30.09. 18:00 15.0° C wolkenlos
Fr, 30.09. 17:30 15.5° C wolkenlos
Fr, 30.09. 17:20 15.5° C wolkenlos
Fr, 30.09. 17:10 15.7° C fast wolkenlos
Fr, 30.09. 17:00 15.7° C wolkig
Fr, 30.09. 16:50 15.7° C wolkig
Fr, 30.09. 16:30 15.7° C bewölkt
Fr, 30.09. 16:00 15.1° C leicht bewölkt
Fr, 30.09. 15:30 16.5° C leicht bewölkt
Fr, 30.09. 15:00 14.9° C leicht bewölkt
Ortszeit Relative Feuchte Sichtweite
Fr, 30.09. 14:00 68% 65 km
Fr, 30.09. 8:00 97% 5.0 km
Fr, 30.09. 2:00 96% 10 km
Do, 29.09. 20:00 93% 8 km
Do, 29.09. 14:00 69% 50 km
Do, 29.09. 8:00 97% 9 km
Do, 29.09. 2:00 90% 22 km
Mi, 28.09. 20:00 87% 20 km
Ortszeit Relative Feuchte Sichtweite
Fr, 30.09. 18:00 56% >70 km
Fr, 30.09. 17:30 52% >70 km
Fr, 30.09. 17:20 52% -
Fr, 30.09. 17:10 54% -
Fr, 30.09. 17:00 54% >70 km
Fr, 30.09. 16:50 54% -
Fr, 30.09. 16:30 58% 60 km
Fr, 30.09. 16:00 60% >70 km
Fr, 30.09. 15:30 60% 60 km
Fr, 30.09. 15:00 63% 60 km
Ortszeit Niederschlagsmenge Niederschlagsart
Fr, 30.09. 14:00 0.0 l/m2 in 6 Std. -
Fr, 30.09. 8:00 0.3 l/m2 in 12 Std. -
Fr, 30.09. 2:00 0.2 l/m2 in 6 Std. Regen
Do, 29.09. 20:00 2 l/m2 in 12 Std. Regen
Do, 29.09. 14:00 0.0 l/m2 in 6 Std. -
Do, 29.09. 8:00 0.0 l/m2 in 12 Std. -
Do, 29.09. 2:00 0.0 l/m2 in 6 Std. -
Mi, 28.09. 20:00 0.0 l/m2 in 12 Std. -
Ortszeit Niederschlagsmenge Niederschlagsart
Fr, 30.09. 18:00 0.0 l/m2 in 1 Std. -
Fr, 30.09. 17:30 0.0 l/m2 in 1 Std. -
Fr, 30.09. 17:20 keine Meldung -
Fr, 30.09. 17:10 keine Meldung -
Fr, 30.09. 17:00 0.0 l/m2 in 1 Std. -
Fr, 30.09. 16:50 keine Meldung -
Fr, 30.09. 16:30 0.0 l/m2 in 1 Std. -
Fr, 30.09. 16:00 0.0 l/m2 in 1 Std. -
Fr, 30.09. 15:30 0.0 l/m2 in 1 Std. -
Fr, 30.09. 15:00 0.0 l/m2 in 1 Std. -
Ortszeit Stärke Spitze Richtung
km/h Bft. km/h Grad Sektor
Fr, 30.09. 14:00 13 3 24 220° SW
Fr, 30.09. 8:00 6 1 17 170° S
Fr, 30.09. 2:00 7 2 22 160° S
Do, 29.09. 20:00 9 2 26 140° SO
Do, 29.09. 14:00 14 3 29 240° SW
Do, 29.09. 8:00 7 2 18 220° SW
Do, 29.09. 2:00 11 2 22 240° SW
Mi, 28.09. 20:00 7 2 18 230° SW
Ortszeit Stärke Spitze Richtung
km/h Bft. km/h Grad Sektor
Fr, 30.09. 18:00 9 2 22 200° S
Fr, 30.09. 17:30 13 3 22 200° S
Fr, 30.09. 17:20 13 3 - 200° S
Fr, 30.09. 17:10 11 2 - 210° SW
Fr, 30.09. 17:00 13 3 24 190° S
Fr, 30.09. 16:50 13 3 - 190° S
Fr, 30.09. 16:30 11 2 25 210° SW
Fr, 30.09. 16:00 13 3 28 190° S
Fr, 30.09. 15:30 14 3 29 210° SW
Fr, 30.09. 15:00 14 3 29 230° SW
Ortszeit Untergrenze Bedeckung Gattung
total tief tief mittel hoch
Fr, 30.09. 14:00 840 m 3/8 3/8 - - -
Fr, 30.09. 8:00 1800 m 3/8 3/8 - - -
Fr, 30.09. 2:00 1800 m 6/8 6/8 - - -
Do, 29.09. 20:00 1230 m 7/8 7/8 - - -
Do, 29.09. 14:00 660 m 8/8 4/8 - - -
Do, 29.09. 8:00 6000 m 8/8 8/8 - - -
Do, 29.09. 2:00 - 0/8 0/8 - - -
Mi, 28.09. 20:00 - 0/8 0/8 - - -
Ortszeit Bedeckungsgrad in Achtel und Wolkenuntergrenze
Fr, 30.09. 18:00 keine Wolken
Fr, 30.09. 17:30 keine Wolken
Fr, 30.09. 17:20 keine Wolken
Fr, 30.09. 17:10 1
Fr, 30.09. 17:00 3(1350m) 5(1500m)
Fr, 30.09. 16:50 3(1350m) 5(1500m)
Fr, 30.09. 16:30 2(1320m) 7(1500m)
Fr, 30.09. 16:00 2(1500m)
Fr, 30.09. 15:30 4(1050m) 4(1350m)
Fr, 30.09. 15:00 1(960m) 4(1500m)
Ortszeit Luftdruck NN (hPa) Tendenz (hPa in 3 Std.)
Fr, 30.09. 14:00 1010 + 0,1
Fr, 30.09. 8:00 1009 + 1,4
Fr, 30.09. 2:00 1007 + 0,8
Do, 29.09. 20:00 1005 + 1,6
Do, 29.09. 14:00 1002 + 0,9
Do, 29.09. 8:00 1001 + 0,6
Do, 29.09. 2:00 1000 + 0,6
Mi, 28.09. 20:00 998 + 0,9
Ortszeit Luftdruck NN (hPa) Tendenz (hPa in 3 Std.)
Fr, 30.09. 18:00 1010 - 0,5
Fr, 30.09. 17:30 1010 - 0,5
Fr, 30.09. 17:20 1010 keine Meldung
Fr, 30.09. 17:10 1010 keine Meldung
Fr, 30.09. 17:00 1010 - 0,4
Fr, 30.09. 16:50 1010 keine Meldung
Fr, 30.09. 16:30 1010 - 0,3
Fr, 30.09. 16:00 1010 - 0,4
Fr, 30.09. 15:30 1010 - 0,1
Fr, 30.09. 15:00 1010 0,0
Ortszeit Schneehöhe (cm)
Fr, 30.09. 14:00 0
Fr, 30.09. 8:00 0
Fr, 30.09. 2:00 0
Do, 29.09. 20:00 0
Do, 29.09. 14:00 0
Do, 29.09. 8:00 0
Do, 29.09. 2:00 0
Mi, 28.09. 20:00 0
Ortszeit Schneehöhe (cm)
Fr, 30.09. 18:00 0
Fr, 30.09. 17:30 0
Fr, 30.09. 17:20 0
Fr, 30.09. 17:10 0
Fr, 30.09. 17:00 0
Fr, 30.09. 16:50 0
Fr, 30.09. 16:30 0
Fr, 30.09. 16:00 0
Fr, 30.09. 15:30 0
Fr, 30.09. 15:00 0
Link zu dieser Seite / Seite empfehlen

Das Wetter in ...